createdAt,value
2022-08-01T00:00:09.142Z,68.13
2022-08-01T00:02:36.833Z,66.60
2022-08-01T00:05:03.623Z,67.44
2022-08-01T00:07:30.224Z,67.60
2022-08-01T00:09:56.746Z,68.37
2022-08-01T00:12:23.314Z,64.74
2022-08-01T00:14:50.056Z,64.70
2022-08-01T00:17:16.790Z,64.48
2022-08-01T00:19:43.332Z,65.59
2022-08-01T00:22:10.177Z,66.35
2022-08-01T00:24:36.864Z,67.24
2022-08-01T00:27:03.482Z,67.06
2022-08-01T00:30:11.862Z,68.00
2022-08-01T00:32:16.915Z,68.07
2022-08-01T00:34:43.455Z,68.88
2022-08-01T00:37:10.370Z,69.24
2022-08-01T00:39:42.077Z,70.21
2022-08-01T00:42:10.447Z,70.26
2022-08-01T00:44:37.230Z,69.91
2022-08-01T00:47:04.602Z,70.33
2022-08-01T00:49:31.667Z,70.14
2022-08-01T00:51:59.418Z,70.45
2022-08-01T00:54:27.695Z,71.77
2022-08-01T00:56:55.040Z,71.34
2022-08-01T00:59:25.932Z,72.59
2022-08-01T01:01:53.709Z,73.15
2022-08-01T01:04:20.486Z,73.03
2022-08-01T01:06:49.867Z,73.09
2022-08-01T01:09:22.092Z,73.72
2022-08-01T01:12:06.000Z,74.59
2022-08-01T01:14:39.035Z,74.69
2022-08-01T01:17:09.896Z,75.15
2022-08-01T01:19:44.198Z,75.62
2022-08-01T01:22:47.347Z,77.08
2022-08-01T01:25:23.068Z,75.90
2022-08-01T01:28:03.169Z,76.24
2022-08-01T01:30:31.981Z,77.00
2022-08-01T01:33:02.209Z,75.43
2022-08-01T01:35:33.470Z,74.51
2022-08-01T01:38:10.170Z,74.96
2022-08-01T01:40:39.013Z,74.36
2022-08-01T01:43:10.653Z,74.43
2022-08-01T01:45:38.465Z,74.28
2022-08-01T01:48:07.442Z,74.60
2022-08-01T01:50:35.787Z,75.40
2022-08-01T01:53:05.113Z,75.53
2022-08-01T01:55:33.505Z,75.77
2022-08-01T01:58:16.979Z,75.92
2022-08-01T02:00:45.554Z,76.84
2022-08-01T02:03:13.351Z,77.53
2022-08-01T02:05:43.146Z,76.97
2022-08-01T02:08:11.855Z,76.86
2022-08-01T02:10:40.255Z,76.75
2022-08-01T02:13:07.569Z,77.96
2022-08-01T02:15:59.913Z,76.93
2022-08-01T02:18:26.858Z,74.43
2022-08-01T02:20:55.871Z,74.43
2022-08-01T02:23:25.146Z,70.80
2022-08-01T02:26:09.627Z,71.34
2022-08-01T02:28:46.673Z,72.76
2022-08-01T02:31:15.431Z,72.42
2022-08-01T02:33:49.286Z,71.60
2022-08-01T02:36:31.206Z,71.68
2022-08-01T02:39:04.404Z,72.13
2022-08-01T02:41:32.590Z,70.43
2022-08-01T02:44:04.283Z,71.80
2022-08-01T02:46:53.112Z,74.06
2022-08-01T02:49:22.201Z,72.47
2022-08-01T02:51:50.223Z,74.94
2022-08-01T02:54:19.743Z,73.40
2022-08-01T02:56:49.341Z,72.85
2022-08-01T02:59:21.408Z,73.30
2022-08-01T03:01:50.874Z,73.06
2022-08-01T03:04:19.806Z,73.50
2022-08-01T03:06:48.365Z,73.03
2022-08-01T03:09:16.823Z,72.75
2022-08-01T03:11:45.211Z,72.38
2022-08-01T03:14:13.814Z,72.71
2022-08-01T03:16:43.439Z,72.09
2022-08-01T03:19:11.935Z,72.42
2022-08-01T03:21:40.569Z,69.67
2022-08-01T03:24:08.474Z,69.50
2022-08-01T03:26:37.116Z,70.02
2022-08-01T03:29:10.882Z,71.75
2022-08-01T03:31:39.365Z,72.71
2022-08-01T03:34:07.044Z,71.74
2022-08-01T03:36:35.625Z,71.96
2022-08-01T03:39:05.067Z,72.41
2022-08-01T03:41:38.663Z,70.63
2022-08-01T03:44:11.322Z,71.61
2022-08-01T03:46:43.461Z,72.20
2022-08-01T03:49:24.667Z,72.24
2022-08-01T03:51:52.453Z,72.54
2022-08-01T03:54:23.841Z,72.34
2022-08-01T03:56:52.473Z,71.00
2022-08-01T03:59:20.132Z,70.60
2022-08-01T04:01:47.511Z,70.39
2022-08-01T04:04:14.651Z,69.83
2022-08-01T04:06:42.403Z,69.94
2022-08-01T04:09:13.399Z,67.91
2022-08-01T04:11:40.952Z,67.56
2022-08-01T04:14:08.672Z,67.15
2022-08-01T04:16:36.206Z,67.12
2022-08-01T04:19:03.641Z,67.60
2022-08-01T04:21:33.378Z,67.99
2022-08-01T04:24:05.957Z,67.41
2022-08-01T04:26:35.774Z,68.68
2022-08-01T04:29:05.868Z,68.68
2022-08-01T04:31:33.580Z,69.06
2022-08-01T04:34:03.226Z,69.72
2022-08-01T04:36:31.284Z,70.03
2022-08-01T04:39:01.216Z,70.11
2022-08-01T04:41:28.783Z,69.66
2022-08-01T04:43:56.054Z,70.27
2022-08-01T04:46:23.583Z,69.77
2022-08-01T04:48:51.495Z,69.42
2022-08-01T04:51:22.837Z,69.85
2022-08-01T04:53:51.925Z,70.11
2022-08-01T04:56:20.043Z,69.27
2022-08-01T04:58:46.562Z,69.40
2022-08-01T05:01:13.949Z,69.14
2022-08-01T05:03:40.715Z,69.31
2022-08-01T05:06:07.523Z,68.67
2022-08-01T05:08:34.129Z,68.50
2022-08-01T05:11:02.154Z,67.91
2022-08-01T05:13:28.853Z,68.06
2022-08-01T05:15:55.455Z,68.24
2022-08-01T05:18:28.288Z,67.16
2022-08-01T05:20:55.187Z,65.60
2022-08-01T05:23:40.376Z,64.44
2022-08-01T05:26:08.907Z,63.84
2022-08-01T05:28:36.421Z,63.57
2022-08-01T05:31:04.318Z,63.25
2022-08-01T05:33:30.875Z,63.01
2022-08-01T05:35:57.452Z,63.37
2022-08-01T05:38:23.966Z,63.33
2022-08-01T05:40:50.687Z,63.47
2022-08-01T05:43:17.293Z,62.38
2022-08-01T05:45:43.898Z,63.17
2022-08-01T05:48:10.499Z,63.34
2022-08-01T05:50:37.101Z,62.21
2022-08-01T05:53:03.627Z,62.66
2022-08-01T05:55:30.307Z,63.50
2022-08-01T05:57:56.810Z,63.47
2022-08-01T06:00:23.530Z,62.89
2022-08-01T06:02:50.101Z,61.64
2022-08-01T06:05:16.790Z,61.07
2022-08-01T06:07:43.439Z,60.45
2022-08-01T06:10:10.311Z,59.96
2022-08-01T06:12:37.684Z,59.79
2022-08-01T06:15:05.841Z,60.22
2022-08-01T06:17:32.545Z,59.01
2022-08-01T06:19:59.082Z,57.88
2022-08-01T06:22:25.627Z,57.58
2022-08-01T06:24:52.544Z,57.36
2022-08-01T06:27:21.948Z,55.98
2022-08-01T06:29:53.586Z,55.43
2022-08-01T06:32:26.828Z,55.65
2022-08-01T06:34:53.960Z,55.02
2022-08-01T06:37:20.509Z,54.32
2022-08-01T06:39:47.127Z,53.10
2022-08-01T06:42:15.830Z,53.05
2022-08-01T06:44:42.693Z,53.45
2022-08-01T06:47:09.220Z,52.75
2022-08-01T06:49:36.049Z,52.20
2022-08-01T06:52:04.425Z,53.44
2022-08-01T06:54:31.238Z,52.18
2022-08-01T06:56:57.758Z,52.49
2022-08-01T06:59:24.308Z,51.19
2022-08-01T07:01:50.919Z,51.23
2022-08-01T07:04:17.479Z,51.04
2022-08-01T07:06:44.018Z,50.27
2022-08-01T07:09:14.217Z,51.35
2022-08-01T07:11:42.025Z,51.85
2022-08-01T07:14:09.008Z,46.69
2022-08-01T07:16:35.620Z,47.99
2022-08-01T07:19:02.319Z,45.95
2022-08-01T07:21:40.345Z,46.94
2022-08-01T07:24:13.259Z,46.80
2022-08-01T07:26:53.133Z,43.19
2022-08-01T07:29:22.983Z,44.54
2022-08-01T07:31:49.547Z,44.37
2022-08-01T07:34:16.062Z,44.50
2022-08-01T07:36:43.455Z,43.98
2022-08-01T07:39:09.990Z,45.08
2022-08-01T07:41:52.768Z,45.28
2022-08-01T07:44:23.282Z,43.35
2022-08-01T07:46:49.847Z,41.47
2022-08-01T07:49:16.489Z,39.09
2022-08-01T07:51:43.062Z,39.13
2022-08-01T07:54:33.936Z,40.63
2022-08-01T07:57:02.098Z,40.75
2022-08-01T07:59:28.732Z,41.00
2022-08-01T08:01:55.361Z,41.75
2022-08-01T08:04:21.976Z,40.61
2022-08-01T08:06:48.687Z,40.85
2022-08-01T08:09:16.207Z,40.80
2022-08-01T08:11:48.124Z,38.33
2022-08-01T08:14:16.019Z,38.75
2022-08-01T08:16:43.771Z,35.62
2022-08-01T08:19:10.747Z,35.73
2022-08-01T08:21:38.774Z,35.25
2022-08-01T08:24:31.714Z,36.29
2022-08-01T08:27:00.353Z,35.56
2022-08-01T08:29:28.025Z,36.98
2022-08-01T08:31:58.627Z,34.82
2022-08-01T08:34:26.891Z,35.98
2022-08-01T08:36:55.584Z,35.60
2022-08-01T08:39:22.170Z,37.08
2022-08-01T08:41:50.019Z,37.09
2022-08-01T08:44:20.555Z,35.45
2022-08-01T08:46:49.999Z,36.42
2022-08-01T08:49:21.971Z,37.03
2022-08-01T08:51:51.289Z,36.39
2022-08-01T08:54:21.739Z,36.27
2022-08-01T08:56:49.485Z,36.02
2022-08-01T08:59:16.026Z,35.94
2022-08-01T09:01:43.983Z,36.25
2022-08-01T09:04:11.987Z,36.53
2022-08-01T09:06:39.310Z,35.37
2022-08-01T09:09:07.260Z,36.00
2022-08-01T09:11:34.452Z,33.69
2022-08-01T09:14:16.103Z,35.29
2022-08-01T09:16:48.856Z,33.83
2022-08-01T09:19:40.526Z,34.12
2022-08-01T09:22:08.816Z,33.53
2022-08-01T09:24:36.880Z,35.18
2022-08-01T09:27:21.964Z,36.66
2022-08-01T09:30:01.134Z,35.88
2022-08-01T09:32:36.053Z,35.70
2022-08-01T09:35:30.890Z,35.32
2022-08-01T09:38:16.628Z,34.46
2022-08-01T09:40:49.413Z,35.42
2022-08-01T09:43:16.186Z,34.87
2022-08-01T09:45:43.817Z,34.67
2022-08-01T09:48:18.933Z,35.25
2022-08-01T09:50:50.158Z,35.17
2022-08-01T09:53:24.495Z,36.01
2022-08-01T09:56:10.678Z,34.92
2022-08-01T09:59:00.420Z,35.81
2022-08-01T10:01:36.569Z,35.49
2022-08-01T10:04:20.638Z,36.32
2022-08-01T10:06:55.861Z,36.99
2022-08-01T10:09:39.619Z,34.89
2022-08-01T10:12:08.839Z,35.53
2022-08-01T10:14:37.699Z,37.23
2022-08-01T10:17:07.863Z,36.21
2022-08-01T10:19:38.870Z,35.47
2022-08-01T10:22:08.554Z,33.42
2022-08-01T10:24:41.083Z,34.62
2022-08-01T10:27:12.400Z,35.58
2022-08-01T10:30:05.156Z,34.65
2022-08-01T10:32:34.284Z,34.85
2022-08-01T10:35:06.808Z,34.70
2022-08-01T10:37:52.440Z,35.41
2022-08-01T10:40:36.992Z,31.53
2022-08-01T10:43:04.648Z,31.55
2022-08-01T10:45:31.781Z,34.19
2022-08-01T10:48:03.287Z,32.97
2022-08-01T10:50:43.348Z,34.00
2022-08-01T10:53:24.426Z,32.89
2022-08-01T10:56:04.256Z,31.91
2022-08-01T10:58:42.774Z,31.82
2022-08-01T11:01:23.341Z,31.92
2022-08-01T11:04:01.574Z,30.50
2022-08-01T11:06:34.336Z,34.58
2022-08-01T11:09:36.977Z,30.81
2022-08-01T11:12:23.145Z,32.27
2022-08-01T11:14:59.679Z,31.45
2022-08-01T11:17:37.553Z,29.33
2022-08-01T11:20:34.253Z,31.41
2022-08-01T11:23:02.046Z,30.63
2022-08-01T11:26:05.601Z,32.30
2022-08-01T11:28:32.307Z,29.83
2022-08-01T11:31:14.032Z,30.64
2022-08-01T11:33:40.659Z,31.31
2022-08-01T11:36:36.992Z,31.98
2022-08-01T11:39:13.812Z,30.10
2022-08-01T11:41:42.010Z,30.67
2022-08-01T11:44:17.246Z,31.57
2022-08-01T11:47:09.991Z,29.72
2022-08-01T11:49:55.961Z,31.09
2022-08-01T11:52:32.706Z,28.73
2022-08-01T11:55:10.351Z,29.84
2022-08-01T11:57:41.054Z,29.83
2022-08-01T12:00:17.431Z,29.76
2022-08-01T12:02:58.857Z,30.45
2022-08-01T12:05:26.560Z,28.46
2022-08-01T12:07:55.978Z,29.89
2022-08-01T12:10:25.416Z,30.95
2022-08-01T12:13:00.110Z,27.50
2022-08-01T12:15:32.134Z,27.47
2022-08-01T12:18:01.577Z,27.21
2022-08-01T12:20:31.891Z,26.78
2022-08-01T12:23:10.157Z,26.85
2022-08-01T12:25:38.072Z,25.66
2022-08-01T12:28:06.639Z,27.82
2022-08-01T12:30:38.214Z,27.04
2022-08-01T12:33:10.604Z,27.96
2022-08-01T12:35:39.348Z,27.10
2022-08-01T12:38:07.410Z,27.75
2022-08-01T12:40:38.225Z,25.90
2022-08-01T12:43:09.258Z,26.28
2022-08-01T12:45:54.360Z,26.53
2022-08-01T12:48:24.593Z,26.90
2022-08-01T12:50:53.488Z,27.98
2022-08-01T12:53:21.507Z,28.72
2022-08-01T12:55:58.313Z,26.88
2022-08-01T12:58:32.418Z,26.47
2022-08-01T13:01:14.154Z,26.49
2022-08-01T13:03:41.327Z,26.16
2022-08-01T13:06:16.551Z,27.04
2022-08-01T13:08:44.749Z,27.18
2022-08-01T13:11:16.622Z,28.06
2022-08-01T13:13:53.685Z,27.49
2022-08-01T13:16:27.907Z,28.37
2022-08-01T13:19:01.579Z,27.77
2022-08-01T13:21:52.135Z,26.45
2022-08-01T13:24:17.233Z,26.51
2022-08-01T13:26:52.111Z,28.06
2022-08-01T13:29:21.713Z,26.67
2022-08-01T13:31:48.905Z,26.76
2022-08-01T13:34:16.134Z,27.96
2022-08-01T13:36:49.010Z,27.77
2022-08-01T13:39:35.661Z,28.36
2022-08-01T13:42:02.300Z,28.10
2022-08-01T13:44:28.862Z,28.45
2022-08-01T13:46:57.178Z,28.00
2022-08-01T13:49:24.401Z,29.01
2022-08-01T13:51:51.684Z,28.37
2022-08-01T13:54:19.053Z,29.26
2022-08-01T13:56:45.723Z,29.65
2022-08-01T13:59:12.556Z,29.82
2022-08-01T14:01:39.190Z,29.20
2022-08-01T14:04:06.166Z,29.58
2022-08-01T14:06:33.815Z,28.77
2022-08-01T14:09:01.342Z,28.05
2022-08-01T14:11:30.642Z,29.28
2022-08-01T14:14:04.783Z,29.13
2022-08-01T14:16:35.294Z,28.45
2022-08-01T14:19:04.039Z,27.24
2022-08-01T14:21:30.707Z,25.68
2022-08-01T14:23:57.208Z,27.04
2022-08-01T14:26:23.795Z,27.15
2022-08-01T14:28:50.393Z,28.13
2022-08-01T14:31:16.913Z,28.50
2022-08-01T14:33:43.484Z,27.79
2022-08-01T14:36:30.761Z,25.36
2022-08-01T14:39:00.204Z,25.94
2022-08-01T14:41:28.150Z,25.84
2022-08-01T14:43:54.758Z,24.27
2022-08-01T14:46:21.370Z,24.37
2022-08-01T14:48:47.986Z,24.80
2022-08-01T14:51:14.576Z,24.29
2022-08-01T14:53:45.833Z,23.50
2022-08-01T14:56:13.259Z,23.30
2022-08-01T14:58:39.784Z,23.01
2022-08-01T15:01:06.870Z,21.54
2022-08-01T15:03:33.830Z,22.04
2022-08-01T15:06:00.578Z,21.72
2022-08-01T15:08:27.461Z,21.45
2022-08-01T15:10:54.023Z,21.65
2022-08-01T15:13:20.722Z,21.19
2022-08-01T15:15:47.922Z,20.98
2022-08-01T15:18:14.634Z,20.54
2022-08-01T15:20:41.713Z,20.37
2022-08-01T15:23:08.387Z,20.03
2022-08-01T15:25:40.897Z,19.68
2022-08-01T15:28:12.403Z,19.12
2022-08-01T15:30:39.657Z,19.71
2022-08-01T15:33:06.487Z,18.54
2022-08-01T15:35:33.435Z,20.50
2022-08-01T15:38:00.091Z,20.78
2022-08-01T15:40:27.700Z,19.17
2022-08-01T15:42:54.292Z,17.75
2022-08-01T15:45:47.245Z,17.02
2022-08-01T15:48:08.923Z,17.68
2022-08-01T15:50:35.641Z,17.75
2022-08-01T15:53:02.222Z,17.43
2022-08-01T15:55:28.819Z,17.30
2022-08-01T15:57:56.065Z,16.81
2022-08-01T16:00:22.821Z,16.88
2022-08-01T16:02:50.546Z,17.50
2022-08-01T16:05:20.469Z,17.34
2022-08-01T16:07:59.235Z,17.68
2022-08-01T16:10:28.835Z,17.23
2022-08-01T16:12:55.384Z,18.78
2022-08-01T16:15:22.693Z,19.63
2022-08-01T16:18:01.986Z,20.56
2022-08-01T16:20:29.262Z,21.20
2022-08-01T16:22:55.825Z,21.26
2022-08-01T16:25:22.399Z,21.97
2022-08-01T16:27:48.984Z,22.21
2022-08-01T16:30:15.568Z,22.74
2022-08-01T16:32:45.449Z,22.57
2022-08-01T16:35:15.416Z,23.01
2022-08-01T16:37:42.624Z,22.86
2022-08-01T16:40:09.568Z,23.25
2022-08-01T16:42:36.153Z,23.66
2022-08-01T16:45:08.655Z,22.59
2022-08-01T16:47:39.511Z,23.31
2022-08-01T16:50:06.398Z,23.65
2022-08-01T16:52:32.907Z,24.54
2022-08-01T16:54:59.516Z,24.19
2022-08-01T16:57:26.039Z,24.44
2022-08-01T16:59:52.607Z,24.84
2022-08-01T17:02:19.175Z,25.62
2022-08-01T17:04:45.763Z,25.68
2022-08-01T17:07:12.309Z,26.02
2022-08-01T17:09:43.323Z,26.86
2022-08-01T17:12:10.675Z,25.47
2022-08-01T17:14:39.871Z,26.19
2022-08-01T17:17:07.387Z,26.34
2022-08-01T17:19:34.437Z,26.61
2022-08-01T17:22:01.065Z,26.86
2022-08-01T17:24:27.903Z,27.98
2022-08-01T17:26:54.571Z,28.73
2022-08-01T17:29:21.203Z,29.40
2022-08-01T17:31:47.898Z,28.52
2022-08-01T17:34:14.666Z,29.34
2022-08-01T17:36:41.411Z,29.85
2022-08-01T17:39:08.821Z,31.22
2022-08-01T17:41:35.619Z,31.55
2022-08-01T17:44:02.216Z,31.81
2022-08-01T17:46:28.736Z,32.27
2022-08-01T17:48:55.323Z,32.64
2022-08-01T17:51:23.003Z,33.75
2022-08-01T17:53:56.132Z,33.95
2022-08-01T17:56:24.462Z,34.64
2022-08-01T17:58:52.246Z,34.25
2022-08-01T18:01:20.545Z,34.57
2022-08-01T18:03:48.065Z,35.25
2022-08-01T18:06:19.371Z,35.97
2022-08-01T18:08:47.153Z,35.80
2022-08-01T18:11:15.085Z,36.89
2022-08-01T18:13:41.669Z,36.89
2022-08-01T18:16:11.292Z,37.69
2022-08-01T18:18:39.108Z,38.08
2022-08-01T18:21:07.061Z,38.86
2022-08-01T18:23:35.095Z,38.22
2022-08-01T18:26:03.049Z,38.94
2022-08-01T18:28:34.049Z,38.79
2022-08-01T18:31:03.587Z,39.17
2022-08-01T18:33:30.184Z,39.76
2022-08-01T18:36:03.793Z,39.46
2022-08-01T18:38:33.173Z,39.83
2022-08-01T18:41:00.770Z,39.67
2022-08-01T18:43:27.629Z,40.16
2022-08-01T18:45:56.936Z,40.46
2022-08-01T18:48:23.643Z,41.32
2022-08-01T18:50:50.175Z,42.63
2022-08-01T18:53:18.768Z,41.51
2022-08-01T18:55:46.127Z,42.57
2022-08-01T18:58:12.705Z,42.29
2022-08-01T19:00:39.990Z,43.89
2022-08-01T19:03:07.751Z,42.64
2022-08-01T19:05:35.819Z,42.88
2022-08-01T19:08:06.822Z,43.03
2022-08-01T19:10:36.108Z,44.54
2022-08-01T19:13:03.040Z,44.79
2022-08-01T19:15:29.842Z,44.36
2022-08-01T19:17:56.478Z,45.28
2022-08-01T19:20:23.247Z,45.01
2022-08-01T19:22:51.923Z,46.48
2022-08-01T19:25:18.498Z,44.88
2022-08-01T19:27:48.065Z,45.12
2022-08-01T19:30:17.319Z,44.62
2022-08-01T19:32:45.817Z,44.30
2022-08-01T19:35:14.586Z,44.07
2022-08-01T19:37:47.247Z,44.05
2022-08-01T19:40:26.834Z,44.63
2022-08-01T19:42:56.402Z,44.80
2022-08-01T19:45:23.174Z,44.78
2022-08-01T19:47:57.316Z,45.30
2022-08-01T19:50:29.158Z,45.54
2022-08-01T19:52:57.587Z,45.88
2022-08-01T19:55:25.184Z,46.29
2022-08-01T19:58:26.307Z,46.51
2022-08-01T20:00:40.621Z,46.68
2022-08-01T20:03:09.092Z,47.41
2022-08-01T20:05:37.260Z,46.27
2022-08-01T20:08:06.675Z,47.54
2022-08-01T20:10:34.191Z,48.44
2022-08-01T20:13:01.424Z,47.83
2022-08-01T20:15:29.323Z,48.76
2022-08-01T20:17:59.634Z,48.86
2022-08-01T20:20:27.523Z,47.63
2022-08-01T20:22:56.932Z,49.83
2022-08-01T20:25:32.070Z,49.59
2022-08-01T20:28:08.716Z,49.69
2022-08-01T20:30:35.348Z,50.22
2022-08-01T20:33:01.912Z,50.13
2022-08-01T20:35:51.454Z,50.40
2022-08-01T20:38:17.342Z,49.38
2022-08-01T20:40:45.584Z,51.93
2022-08-01T20:43:12.327Z,54.06
2022-08-01T20:45:39.248Z,52.38
2022-08-01T20:48:08.068Z,52.64
2022-08-01T20:50:54.911Z,53.13
2022-08-01T20:53:24.428Z,54.12
2022-08-01T20:56:00.803Z,52.04
2022-08-01T20:58:37.000Z,55.59
2022-08-01T21:01:09.663Z,53.16
2022-08-01T21:03:45.345Z,54.54
2022-08-01T21:06:14.751Z,54.52
2022-08-01T21:08:44.135Z,55.53
2022-08-01T21:11:19.530Z,53.62
2022-08-01T21:13:48.069Z,54.19
2022-08-01T21:16:25.339Z,55.54
2022-08-01T21:21:51.004Z,56.35
2022-08-01T21:24:18.961Z,56.58
2022-08-01T21:26:46.531Z,57.97
2022-08-01T21:29:13.977Z,57.01
2022-08-01T21:31:41.661Z,57.57
2022-08-01T21:34:09.217Z,56.60
2022-08-01T21:36:36.678Z,58.05
2022-08-01T21:39:05.844Z,60.19
2022-08-01T21:41:56.742Z,58.30
2022-08-01T21:44:20.019Z,57.72
2022-08-01T21:46:48.242Z,59.15
2022-08-01T21:49:14.998Z,59.33
2022-08-01T21:51:51.673Z,58.97
2022-08-01T21:54:28.542Z,57.89
2022-08-01T21:57:14.261Z,59.42
2022-08-01T22:00:02.181Z,59.64
2022-08-01T22:02:36.621Z,59.49
2022-08-01T22:05:09.259Z,59.76
2022-08-01T22:07:45.983Z,60.05
2022-08-01T22:10:18.375Z,61.25
2022-08-01T22:12:46.180Z,60.57
2022-08-01T22:15:14.077Z,60.59
2022-08-01T22:17:41.855Z,61.63
2022-08-01T22:20:09.215Z,61.87
2022-08-01T22:22:51.429Z,61.38
2022-08-01T22:25:21.087Z,62.42
2022-08-01T22:28:06.335Z,62.04
2022-08-01T22:30:39.886Z,62.96
2022-08-01T22:33:17.129Z,62.59
2022-08-01T22:35:55.563Z,62.84
2022-08-01T22:38:24.392Z,61.27
2022-08-01T22:40:51.038Z,62.09
2022-08-01T22:43:29.377Z,63.15
2022-08-01T22:46:14.602Z,62.86
2022-08-01T22:48:51.231Z,63.44
2022-08-01T22:51:38.241Z,63.43
2022-08-01T22:54:09.853Z,64.53
2022-08-01T22:56:41.449Z,63.73
2022-08-01T22:59:13.852Z,63.23
2022-08-01T23:01:47.552Z,63.95
2022-08-01T23:04:35.140Z,63.63
2022-08-01T23:07:05.915Z,63.59
2022-08-01T23:09:52.972Z,65.16
2022-08-01T23:12:24.496Z,65.29
2022-08-01T23:14:57.290Z,66.09
2022-08-01T23:17:28.802Z,63.97
2022-08-01T23:20:01.657Z,66.56
2022-08-01T23:22:31.210Z,65.43
2022-08-01T23:25:05.057Z,65.70
2022-08-01T23:27:51.540Z,67.59
2022-08-01T23:30:25.386Z,66.86
2022-08-01T23:32:51.887Z,67.28
2022-08-01T23:35:18.464Z,66.26
2022-08-01T23:37:45.133Z,66.61
2022-08-01T23:40:12.315Z,66.78
2022-08-01T23:42:38.991Z,66.65
2022-08-01T23:45:07.005Z,67.29
2022-08-01T23:47:33.601Z,67.01
2022-08-01T23:50:00.278Z,68.38
2022-08-01T23:52:32.339Z,69.15
2022-08-01T23:55:04.523Z,68.05
2022-08-01T23:57:41.777Z,67.76
